Airfield :
LOGIN :

Register | Disclaimer

   EN    FR    IT 

 










Legend :    VFR   Marginal VFR   IFR   Intensive IFR   Very Intensive IFR
Visi :
Ceiling :
>= 8 km
>= 3000ft
5 to 8 km
1000 to 3000 ft
1500m to 5 km
500 to 1000 ft
800 to 1500m
200 to 500 ft
< 800m
< 200 ft
Symbols :   Thunderstorms  Fog  Heavy snow  Heavy precipitations  Wind > 20 kt
SIGMETs :     Misc.  Thunderstorms  Icing  Turbulence  Mountain Waves  Volcanic Ashes






- Airport Elevation : 228 ft
- IATA code : OPO


LPPR - Porto Fr. Sa Carneiro

CURRENT METAR :
  • 290600Z VRB02KT CAVOK 11/11 Q1019

EXPIRED METARs :
  • 290530Z 00000KT CAVOK 11/11 Q1019
  • 290500Z 00000KT CAVOK 11/10 Q1018
  • 290430Z 00000KT CAVOK 11/11 Q1018
  • 290400Z 00000KT CAVOK 11/11 Q1018
  • 290330Z 00000KT CAVOK 11/10 Q1018
  • 290300Z 00000KT CAVOK 12/11 Q1018
  • 290230Z 00000KT CAVOK 12/12 Q1018
  • 290200Z 00000KT CAVOK 12/11 Q1019
  • 290130Z 00000KT CAVOK 12/11 Q1019
  • 290100Z 34003KT CAVOK 13/12 Q1019

TAF TAF LPPR
Valid from the 29 at 06:00 until the 30 at 06:00 UTC


290500Z 2906/3006 VRB02KT CAVOK
PROB30
TEMPO 2906/2908 5000 BR SCT003
BECMG 2908/2910 30008KT
BECMG 2914/2916 33013KT
BECMG 2921/2923 36005KT



MET'MAP, your aeronautical weather chart ! - Copyright ORBIFLY December 2007 - Disclaimer

ORBIFLY MET'MAP TEAM :

Programming & Development : Alexandra Zaïnal
Original concept : Baudouin d'Aumeries
Technical & hardware support : Manuel Goepfert
Assistance : Marc-Olivier Méhu




SOURCES & CREDITS :

   NOAA